sensor_id;sensor_type;location;lat;lon;timestamp;P1;durP1;ratioP1;P2;durP2;ratioP2
67554;SDS011;54385;53.516;49.456;2024-02-23T00:01:04;2.42;;;1.67;;
67554;SDS011;54385;53.516;49.456;2024-02-23T00:03:32;2.42;;;1.60;;
67554;SDS011;54385;53.516;49.456;2024-02-23T00:06:02;2.03;;;1.42;;
67554;SDS011;54385;53.516;49.456;2024-02-23T00:08:29;2.20;;;1.75;;
67554;SDS011;54385;53.516;49.456;2024-02-23T00:10:55;2.00;;;1.38;;
67554;SDS011;54385;53.516;49.456;2024-02-23T00:13:22;2.08;;;1.45;;
67554;SDS011;54385;53.516;49.456;2024-02-23T00:15:49;2.50;;;1.60;;
67554;SDS011;54385;53.516;49.456;2024-02-23T00:18:16;2.58;;;1.60;;
67554;SDS011;54385;53.516;49.456;2024-02-23T00:20:43;1.92;;;1.50;;
67554;SDS011;54385;53.516;49.456;2024-02-23T00:23:10;2.08;;;1.40;;
67554;SDS011;54385;53.516;49.456;2024-02-23T00:25:39;2.00;;;1.48;;
67554;SDS011;54385;53.516;49.456;2024-02-23T00:28:06;2.10;;;1.60;;
67554;SDS011;54385;53.516;49.456;2024-02-23T00:30:34;2.55;;;1.40;;
67554;SDS011;54385;53.516;49.456;2024-02-23T00:33:00;2.30;;;1.42;;
67554;SDS011;54385;53.516;49.456;2024-02-23T00:35:27;2.35;;;1.67;;
67554;SDS011;54385;53.516;49.456;2024-02-23T00:37:54;2.05;;;1.73;;
67554;SDS011;54385;53.516;49.456;2024-02-23T00:40:21;2.55;;;1.48;;
67554;SDS011;54385;53.516;49.456;2024-02-23T00:42:49;2.70;;;1.63;;
67554;SDS011;54385;53.516;49.456;2024-02-23T00:45:16;1.77;;;1.40;;
67554;SDS011;54385;53.516;49.456;2024-02-23T00:47:43;2.10;;;1.40;;
67554;SDS011;54385;53.516;49.456;2024-02-23T00:50:10;2.05;;;1.40;;
67554;SDS011;54385;53.516;49.456;2024-02-23T00:52:37;2.38;;;1.70;;
67554;SDS011;54385;53.516;49.456;2024-02-23T00:55:04;2.33;;;1.58;;
67554;SDS011;54385;53.516;49.456;2024-02-23T00:57:31;3.00;;;1.73;;
67554;SDS011;54385;53.516;49.456;2024-02-23T00:59:58;2.30;;;1.70;;
67554;SDS011;54385;53.516;49.456;2024-02-23T01:02:25;2.38;;;1.50;;
67554;SDS011;54385;53.516;49.456;2024-02-23T01:04:51;1.88;;;1.30;;
67554;SDS011;54385;53.516;49.456;2024-02-23T01:07:22;2.63;;;1.33;;
67554;SDS011;54385;53.516;49.456;2024-02-23T01:09:50;1.90;;;1.42;;
67554;SDS011;54385;53.516;49.456;2024-02-23T01:12:17;1.88;;;1.30;;
67554;SDS011;54385;53.516;49.456;2024-02-23T01:14:44;2.28;;;1.55;;
67554;SDS011;54385;53.516;49.456;2024-02-23T01:17:11;2.10;;;1.35;;
67554;SDS011;54385;53.516;49.456;2024-02-23T01:19:38;2.00;;;1.58;;
67554;SDS011;54385;53.516;49.456;2024-02-23T01:22:04;2.00;;;1.40;;
67554;SDS011;54385;53.516;49.456;2024-02-23T01:24:31;2.17;;;1.48;;
67554;SDS011;54385;53.516;49.456;2024-02-23T01:26:58;2.13;;;1.67;;
67554;SDS011;54385;53.516;49.456;2024-02-23T01:29:25;2.20;;;1.55;;
67554;SDS011;54385;53.516;49.456;2024-02-23T01:31:53;2.28;;;1.60;;
67554;SDS011;54385;53.516;49.456;2024-02-23T01:34:22;1.77;;;1.30;;
67554;SDS011;54385;53.516;49.456;2024-02-23T01:36:49;2.35;;;1.67;;
67554;SDS011;54385;53.516;49.456;2024-02-23T01:39:16;1.92;;;1.27;;
67554;SDS011;54385;53.516;49.456;2024-02-23T01:41:43;2.50;;;1.65;;
67554;SDS011;54385;53.516;49.456;2024-02-23T01:44:10;2.17;;;1.30;;
67554;SDS011;54385;53.516;49.456;2024-02-23T01:46:37;2.85;;;1.58;;
67554;SDS011;54385;53.516;49.456;2024-02-23T01:49:05;1.95;;;1.40;;
67554;SDS011;54385;53.516;49.456;2024-02-23T01:51:34;2.55;;;1.50;;
67554;SDS011;54385;53.516;49.456;2024-02-23T01:54:01;1.95;;;1.50;;
67554;SDS011;54385;53.516;49.456;2024-02-23T01:56:29;1.70;;;1.27;;
67554;SDS011;54385;53.516;49.456;2024-02-23T01:58:58;2.47;;;1.50;;
67554;SDS011;54385;53.516;49.456;2024-02-23T02:01:26;2.50;;;1.50;;
67554;SDS011;54385;53.516;49.456;2024-02-23T02:03:53;2.67;;;1.50;;
67554;SDS011;54385;53.516;49.456;2024-02-23T02:06:19;2.47;;;1.60;;
67554;SDS011;54385;53.516;49.456;2024-02-23T02:08:46;2.55;;;1.50;;
67554;SDS011;54385;53.516;49.456;2024-02-23T02:11:13;3.83;;;1.73;;
67554;SDS011;54385;53.516;49.456;2024-02-23T02:13:41;1.55;;;1.13;;
67554;SDS011;54385;53.516;49.456;2024-02-23T02:16:08;2.10;;;1.65;;
67554;SDS011;54385;53.516;49.456;2024-02-23T02:18:35;1.92;;;1.25;;
67554;SDS011;54385;53.516;49.456;2024-02-23T02:21:02;2.10;;;1.45;;
67554;SDS011;54385;53.516;49.456;2024-02-23T02:23:29;1.50;;;1.20;;
67554;SDS011;54385;53.516;49.456;2024-02-23T02:25:56;1.83;;;1.50;;
67554;SDS011;54385;53.516;49.456;2024-02-23T02:28:24;2.22;;;1.60;;
67554;SDS011;54385;53.516;49.456;2024-02-23T02:30:51;1.98;;;1.42;;
67554;SDS011;54385;53.516;49.456;2024-02-23T02:33:22;4.03;;;1.60;;
67554;SDS011;54385;53.516;49.456;2024-02-23T02:35:49;2.03;;;1.50;;
67554;SDS011;54385;53.516;49.456;2024-02-23T02:38:16;1.90;;;1.35;;
67554;SDS011;54385;53.516;49.456;2024-02-23T02:40:42;2.67;;;1.40;;
67554;SDS011;54385;53.516;49.456;2024-02-23T02:43:09;1.85;;;1.50;;
67554;SDS011;54385;53.516;49.456;2024-02-23T02:45:37;2.30;;;1.60;;
67554;SDS011;54385;53.516;49.456;2024-02-23T02:48:06;1.80;;;1.35;;
67554;SDS011;54385;53.516;49.456;2024-02-23T02:50:34;2.90;;;1.58;;
67554;SDS011;54385;53.516;49.456;2024-02-23T02:53:01;2.17;;;1.60;;
67554;SDS011;54385;53.516;49.456;2024-02-23T02:55:31;2.55;;;1.50;;
67554;SDS011;54385;53.516;49.456;2024-02-23T02:58:11;2.10;;;1.30;;
67554;SDS011;54385;53.516;49.456;2024-02-23T03:00:39;1.67;;;1.40;;
67554;SDS011;54385;53.516;49.456;2024-02-23T03:03:06;2.22;;;1.60;;
67554;SDS011;54385;53.516;49.456;2024-02-23T03:05:33;2.17;;;1.42;;
67554;SDS011;54385;53.516;49.456;2024-02-23T03:08:09;3.33;;;1.38;;
67554;SDS011;54385;53.516;49.456;2024-02-23T03:10:41;2.90;;;1.38;;
67554;SDS011;54385;53.516;49.456;2024-02-23T03:13:16;2.15;;;1.50;;
67554;SDS011;54385;53.516;49.456;2024-02-23T03:15:46;1.70;;;1.40;;
67554;SDS011;54385;53.516;49.456;2024-02-23T03:18:13;2.63;;;1.50;;
67554;SDS011;54385;53.516;49.456;2024-02-23T03:20:41;2.15;;;1.40;;
67554;SDS011;54385;53.516;49.456;2024-02-23T03:23:08;1.95;;;1.23;;
67554;SDS011;54385;53.516;49.456;2024-02-23T03:25:36;2.42;;;1.33;;
67554;SDS011;54385;53.516;49.456;2024-02-23T03:28:03;2.10;;;1.60;;
67554;SDS011;54385;53.516;49.456;2024-02-23T03:30:33;2.22;;;1.48;;
67554;SDS011;54385;53.516;49.456;2024-02-23T03:33:14;2.72;;;1.55;;
67554;SDS011;54385;53.516;49.456;2024-02-23T03:35:41;2.10;;;1.63;;
67554;SDS011;54385;53.516;49.456;2024-02-23T03:38:08;1.73;;;1.35;;
67554;SDS011;54385;53.516;49.456;2024-02-23T03:40:35;2.00;;;1.48;;
67554;SDS011;54385;53.516;49.456;2024-02-23T03:43:02;3.08;;;1.50;;
67554;SDS011;54385;53.516;49.456;2024-02-23T03:45:29;2.63;;;1.58;;
67554;SDS011;54385;53.516;49.456;2024-02-23T03:47:56;2.28;;;1.60;;
67554;SDS011;54385;53.516;49.456;2024-02-23T03:50:23;2.55;;;1.75;;
67554;SDS011;54385;53.516;49.456;2024-02-23T03:52:50;2.20;;;1.50;;
67554;SDS011;54385;53.516;49.456;2024-02-23T03:55:17;1.80;;;1.35;;
67554;SDS011;54385;53.516;49.456;2024-02-23T03:57:44;1.88;;;1.50;;
67554;SDS011;54385;53.516;49.456;2024-02-23T04:00:11;1.77;;;1.30;;
67554;SDS011;54385;53.516;49.456;2024-02-23T04:02:38;2.00;;;1.45;;
67554;SDS011;54385;53.516;49.456;2024-02-23T04:05:05;3.05;;;1.52;;
67554;SDS011;54385;53.516;49.456;2024-02-23T04:07:33;2.28;;;1.63;;
67554;SDS011;54385;53.516;49.456;2024-02-23T04:10:00;2.45;;;1.48;;
67554;SDS011;54385;53.516;49.456;2024-02-23T04:12:27;1.88;;;1.50;;
67554;SDS011;54385;53.516;49.456;2024-02-23T04:14:53;2.20;;;1.52;;
67554;SDS011;54385;53.516;49.456;2024-02-23T04:17:20;2.47;;;1.65;;
67554;SDS011;54385;53.516;49.456;2024-02-23T04:19:47;2.92;;;1.70;;
67554;SDS011;54385;53.516;49.456;2024-02-23T04:22:14;2.50;;;1.70;;
67554;SDS011;54385;53.516;49.456;2024-02-23T04:24:41;3.30;;;1.98;;
67554;SDS011;54385;53.516;49.456;2024-02-23T04:27:08;1.98;;;1.50;;
67554;SDS011;54385;53.516;49.456;2024-02-23T04:29:35;3.05;;;1.98;;
67554;SDS011;54385;53.516;49.456;2024-02-23T04:32:02;1.90;;;1.45;;
67554;SDS011;54385;53.516;49.456;2024-02-23T04:34:29;2.72;;;1.90;;
67554;SDS011;54385;53.516;49.456;2024-02-23T04:36:56;2.20;;;1.67;;
67554;SDS011;54385;53.516;49.456;2024-02-23T04:39:23;1.98;;;1.60;;
67554;SDS011;54385;53.516;49.456;2024-02-23T04:41:49;2.00;;;1.55;;
67554;SDS011;54385;53.516;49.456;2024-02-23T04:44:16;1.48;;;1.30;;
67554;SDS011;54385;53.516;49.456;2024-02-23T04:46:43;2.63;;;1.50;;
67554;SDS011;54385;53.516;49.456;2024-02-23T04:49:10;2.60;;;1.70;;
67554;SDS011;54385;53.516;49.456;2024-02-23T04:51:38;2.58;;;1.83;;
67554;SDS011;54385;53.516;49.456;2024-02-23T04:54:04;2.47;;;1.60;;
67554;SDS011;54385;53.516;49.456;2024-02-23T04:56:32;2.47;;;1.70;;
67554;SDS011;54385;53.516;49.456;2024-02-23T04:58:59;2.15;;;1.63;;
67554;SDS011;54385;53.516;49.456;2024-02-23T05:01:26;2.72;;;1.75;;
67554;SDS011;54385;53.516;49.456;2024-02-23T05:03:53;2.25;;;1.55;;
67554;SDS011;54385;53.516;49.456;2024-02-23T05:06:20;1.98;;;1.75;;
67554;SDS011;54385;53.516;49.456;2024-02-23T05:08:46;2.92;;;2.00;;
67554;SDS011;54385;53.516;49.456;2024-02-23T05:11:14;2.60;;;1.50;;
67554;SDS011;54385;53.516;49.456;2024-02-23T05:13:42;2.28;;;1.55;;
67554;SDS011;54385;53.516;49.456;2024-02-23T05:16:09;2.30;;;1.70;;
67554;SDS011;54385;53.516;49.456;2024-02-23T05:18:36;2.28;;;1.52;;
67554;SDS011;54385;53.516;49.456;2024-02-23T05:21:03;2.42;;;1.67;;
67554;SDS011;54385;53.516;49.456;2024-02-23T05:23:30;2.22;;;1.40;;
67554;SDS011;54385;53.516;49.456;2024-02-23T05:25:56;2.53;;;1.70;;
67554;SDS011;54385;53.516;49.456;2024-02-23T05:28:23;2.95;;;2.00;;
67554;SDS011;54385;53.516;49.456;2024-02-23T05:30:50;2.88;;;1.60;;
67554;SDS011;54385;53.516;49.456;2024-02-23T05:33:17;2.42;;;1.33;;
67554;SDS011;54385;53.516;49.456;2024-02-23T05:35:46;2.45;;;1.50;;
67554;SDS011;54385;53.516;49.456;2024-02-23T05:38:16;2.90;;;1.75;;
67554;SDS011;54385;53.516;49.456;2024-02-23T05:40:43;1.65;;;1.40;;
67554;SDS011;54385;53.516;49.456;2024-02-23T05:43:11;1.77;;;1.40;;
67554;SDS011;54385;53.516;49.456;2024-02-23T05:45:38;2.90;;;1.63;;
67554;SDS011;54385;53.516;49.456;2024-02-23T05:48:05;3.42;;;1.67;;
67554;SDS011;54385;53.516;49.456;2024-02-23T05:50:33;2.05;;;1.73;;
67554;SDS011;54385;53.516;49.456;2024-02-23T05:52:59;2.00;;;1.60;;
67554;SDS011;54385;53.516;49.456;2024-02-23T05:55:26;3.08;;;1.77;;
67554;SDS011;54385;53.516;49.456;2024-02-23T05:57:53;2.13;;;1.50;;
67554;SDS011;54385;53.516;49.456;2024-02-23T06:00:20;2.22;;;1.40;;
67554;SDS011;54385;53.516;49.456;2024-02-23T06:02:47;2.90;;;1.80;;
67554;SDS011;54385;53.516;49.456;2024-02-23T06:05:14;2.72;;;1.85;;
67554;SDS011;54385;53.516;49.456;2024-02-23T06:07:43;2.70;;;1.70;;
67554;SDS011;54385;53.516;49.456;2024-02-23T06:10:10;2.05;;;1.50;;
67554;SDS011;54385;53.516;49.456;2024-02-23T06:12:37;2.67;;;1.48;;
67554;SDS011;54385;53.516;49.456;2024-02-23T06:15:04;2.28;;;1.42;;
67554;SDS011;54385;53.516;49.456;2024-02-23T06:17:32;2.72;;;1.42;;
67554;SDS011;54385;53.516;49.456;2024-02-23T06:19:59;2.53;;;1.73;;
67554;SDS011;54385;53.516;49.456;2024-02-23T06:22:25;3.00;;;1.83;;
67554;SDS011;54385;53.516;49.456;2024-02-23T06:24:52;2.25;;;1.60;;
67554;SDS011;54385;53.516;49.456;2024-02-23T06:27:19;2.08;;;1.60;;
67554;SDS011;54385;53.516;49.456;2024-02-23T06:29:47;2.58;;;2.00;;
67554;SDS011;54385;53.516;49.456;2024-02-23T06:32:14;2.88;;;1.60;;
67554;SDS011;54385;53.516;49.456;2024-02-23T06:34:42;2.50;;;1.73;;
67554;SDS011;54385;53.516;49.456;2024-02-23T06:37:09;2.65;;;1.70;;
67554;SDS011;54385;53.516;49.456;2024-02-23T06:39:35;2.55;;;1.80;;
67554;SDS011;54385;53.516;49.456;2024-02-23T06:42:02;2.55;;;1.60;;
67554;SDS011;54385;53.516;49.456;2024-02-23T06:44:30;2.10;;;1.70;;
67554;SDS011;54385;53.516;49.456;2024-02-23T06:46:57;2.42;;;1.80;;
67554;SDS011;54385;53.516;49.456;2024-02-23T06:49:24;3.10;;;1.98;;
67554;SDS011;54385;53.516;49.456;2024-02-23T06:51:51;2.13;;;1.65;;
67554;SDS011;54385;53.516;49.456;2024-02-23T06:54:18;2.13;;;1.60;;
67554;SDS011;54385;53.516;49.456;2024-02-23T06:56:45;2.60;;;2.00;;
67554;SDS011;54385;53.516;49.456;2024-02-23T06:59:12;2.25;;;1.65;;
67554;SDS011;54385;53.516;49.456;2024-02-23T07:01:49;2.75;;;1.77;;
67554;SDS011;54385;53.516;49.456;2024-02-23T07:04:16;3.00;;;1.67;;
67554;SDS011;54385;53.516;49.456;2024-02-23T07:06:44;2.92;;;1.70;;
67554;SDS011;54385;53.516;49.456;2024-02-23T07:09:11;2.30;;;1.80;;
67554;SDS011;54385;53.516;49.456;2024-02-23T07:11:38;3.10;;;2.00;;
67554;SDS011;54385;53.516;49.456;2024-02-23T07:14:07;2.15;;;1.70;;
67554;SDS011;54385;53.516;49.456;2024-02-23T07:16:38;2.78;;;1.80;;
67554;SDS011;54385;53.516;49.456;2024-02-23T07:19:06;2.90;;;2.00;;
67554;SDS011;54385;53.516;49.456;2024-02-23T07:21:33;2.78;;;1.80;;
67554;SDS011;54385;53.516;49.456;2024-02-23T07:24:00;2.75;;;1.80;;
67554;SDS011;54385;53.516;49.456;2024-02-23T07:26:27;2.17;;;1.77;;
67554;SDS011;54385;53.516;49.456;2024-02-23T07:28:56;2.25;;;1.80;;
67554;SDS011;54385;53.516;49.456;2024-02-23T07:31:23;2.63;;;1.70;;
67554;SDS011;54385;53.516;49.456;2024-02-23T07:33:50;2.60;;;2.30;;
67554;SDS011;54385;53.516;49.456;2024-02-23T07:36:17;2.42;;;1.90;;
67554;SDS011;54385;53.516;49.456;2024-02-23T07:38:44;2.47;;;1.83;;
67554;SDS011;54385;53.516;49.456;2024-02-23T07:41:11;3.78;;;2.15;;
67554;SDS011;54385;53.516;49.456;2024-02-23T07:43:41;2.22;;;1.80;;
67554;SDS011;54385;53.516;49.456;2024-02-23T07:46:08;3.15;;;2.10;;
67554;SDS011;54385;53.516;49.456;2024-02-23T07:48:35;2.50;;;1.90;;
67554;SDS011;54385;53.516;49.456;2024-02-23T07:51:03;2.80;;;1.90;;
67554;SDS011;54385;53.516;49.456;2024-02-23T07:53:31;3.85;;;2.00;;
67554;SDS011;54385;53.516;49.456;2024-02-23T07:55:59;2.70;;;1.80;;
67554;SDS011;54385;53.516;49.456;2024-02-23T07:58:28;2.88;;;1.70;;
67554;SDS011;54385;53.516;49.456;2024-02-23T08:00:55;2.53;;;1.92;;
67554;SDS011;54385;53.516;49.456;2024-02-23T08:03:22;2.75;;;1.88;;
67554;SDS011;54385;53.516;49.456;2024-02-23T08:05:49;2.60;;;1.80;;
67554;SDS011;54385;53.516;49.456;2024-02-23T08:08:16;2.50;;;1.85;;
67554;SDS011;54385;53.516;49.456;2024-02-23T08:10:43;3.67;;;2.17;;
67554;SDS011;54385;53.516;49.456;2024-02-23T08:13:10;3.05;;;2.13;;
67554;SDS011;54385;53.516;49.456;2024-02-23T08:15:37;3.20;;;2.15;;
67554;SDS011;54385;53.516;49.456;2024-02-23T08:18:04;2.97;;;2.13;;
67554;SDS011;54385;53.516;49.456;2024-02-23T08:20:31;2.97;;;2.20;;
67554;SDS011;54385;53.516;49.456;2024-02-23T08:22:58;2.22;;;1.75;;
67554;SDS011;54385;53.516;49.456;2024-02-23T08:25:25;2.35;;;1.83;;
67554;SDS011;54385;53.516;49.456;2024-02-23T08:27:55;2.20;;;1.80;;
67554;SDS011;54385;53.516;49.456;2024-02-23T08:30:22;2.42;;;1.90;;
67554;SDS011;54385;53.516;49.456;2024-02-23T08:32:49;2.83;;;2.08;;
67554;SDS011;54385;53.516;49.456;2024-02-23T08:35:16;3.15;;;2.20;;
67554;SDS011;54385;53.516;49.456;2024-02-23T08:37:43;2.80;;;1.90;;
67554;SDS011;54385;53.516;49.456;2024-02-23T08:40:10;2.83;;;1.80;;
67554;SDS011;54385;53.516;49.456;2024-02-23T08:42:38;3.92;;;1.90;;
67554;SDS011;54385;53.516;49.456;2024-02-23T08:45:05;2.75;;;2.00;;
67554;SDS011;54385;53.516;49.456;2024-02-23T08:47:33;2.50;;;1.77;;
67554;SDS011;54385;53.516;49.456;2024-02-23T08:50:01;2.25;;;1.92;;
67554;SDS011;54385;53.516;49.456;2024-02-23T08:52:28;3.30;;;2.20;;
67554;SDS011;54385;53.516;49.456;2024-02-23T08:54:56;2.83;;;2.20;;
67554;SDS011;54385;53.516;49.456;2024-02-23T08:57:23;3.53;;;2.15;;
67554;SDS011;54385;53.516;49.456;2024-02-23T08:59:50;2.70;;;1.90;;
67554;SDS011;54385;53.516;49.456;2024-02-23T09:02:17;3.67;;;1.83;;
67554;SDS011;54385;53.516;49.456;2024-02-23T09:04:45;2.83;;;1.98;;
67554;SDS011;54385;53.516;49.456;2024-02-23T09:07:15;3.10;;;2.00;;
67554;SDS011;54385;53.516;49.456;2024-02-23T09:09:42;2.92;;;2.00;;
67554;SDS011;54385;53.516;49.456;2024-02-23T09:12:08;2.40;;;1.77;;
67554;SDS011;54385;53.516;49.456;2024-02-23T09:14:36;2.58;;;1.80;;
67554;SDS011;54385;53.516;49.456;2024-02-23T09:17:07;3.05;;;2.10;;
67554;SDS011;54385;53.516;49.456;2024-02-23T09:19:34;2.83;;;2.00;;
67554;SDS011;54385;53.516;49.456;2024-02-23T09:22:02;2.30;;;1.58;;
67554;SDS011;54385;53.516;49.456;2024-02-23T09:24:29;2.95;;;2.05;;
67554;SDS011;54385;53.516;49.456;2024-02-23T09:26:56;3.28;;;2.10;;
67554;SDS011;54385;53.516;49.456;2024-02-23T09:29:23;3.25;;;1.90;;
67554;SDS011;54385;53.516;49.456;2024-02-23T09:31:50;3.03;;;2.03;;
67554;SDS011;54385;53.516;49.456;2024-02-23T09:34:18;3.35;;;2.22;;
67554;SDS011;54385;53.516;49.456;2024-02-23T09:36:45;3.25;;;2.00;;
67554;SDS011;54385;53.516;49.456;2024-02-23T09:39:12;3.00;;;2.05;;
67554;SDS011;54385;53.516;49.456;2024-02-23T09:41:39;4.22;;;2.30;;
67554;SDS011;54385;53.516;49.456;2024-02-23T09:44:08;2.83;;;2.00;;
67554;SDS011;54385;53.516;49.456;2024-02-23T09:46:39;3.58;;;2.40;;
67554;SDS011;54385;53.516;49.456;2024-02-23T09:49:06;4.00;;;2.45;;
67554;SDS011;54385;53.516;49.456;2024-02-23T09:51:34;2.55;;;1.77;;
67554;SDS011;54385;53.516;49.456;2024-02-23T09:54:02;3.35;;;2.10;;
67554;SDS011;54385;53.516;49.456;2024-02-23T09:56:29;2.95;;;1.90;;
67554;SDS011;54385;53.516;49.456;2024-02-23T09:58:58;3.35;;;2.30;;
67554;SDS011;54385;53.516;49.456;2024-02-23T10:01:28;2.30;;;1.60;;
67554;SDS011;54385;53.516;49.456;2024-02-23T10:04:03;3.83;;;2.08;;
67554;SDS011;54385;53.516;49.456;2024-02-23T10:06:32;3.28;;;2.08;;
67554;SDS011;54385;53.516;49.456;2024-02-23T10:08:59;3.30;;;2.20;;
67554;SDS011;54385;53.516;49.456;2024-02-23T10:11:26;3.08;;;1.90;;
67554;SDS011;54385;53.516;49.456;2024-02-23T10:13:53;2.88;;;2.13;;
67554;SDS011;54385;53.516;49.456;2024-02-23T10:16:21;2.45;;;1.90;;
67554;SDS011;54385;53.516;49.456;2024-02-23T10:18:49;3.03;;;1.80;;
67554;SDS011;54385;53.516;49.456;2024-02-23T10:21:16;2.78;;;1.90;;
67554;SDS011;54385;53.516;49.456;2024-02-23T10:23:44;3.65;;;2.13;;
67554;SDS011;54385;53.516;49.456;2024-02-23T10:26:11;2.90;;;2.05;;
67554;SDS011;54385;53.516;49.456;2024-02-23T10:28:38;2.45;;;1.80;;
67554;SDS011;54385;53.516;49.456;2024-02-23T10:31:05;2.90;;;2.00;;
67554;SDS011;54385;53.516;49.456;2024-02-23T10:33:32;2.17;;;1.75;;
67554;SDS011;54385;53.516;49.456;2024-02-23T10:36:01;2.88;;;1.98;;
67554;SDS011;54385;53.516;49.456;2024-02-23T10:38:32;2.78;;;1.98;;
67554;SDS011;54385;53.516;49.456;2024-02-23T10:40:59;3.78;;;2.15;;
67554;SDS011;54385;53.516;49.456;2024-02-23T10:43:30;2.90;;;1.90;;
67554;SDS011;54385;53.516;49.456;2024-02-23T10:46:01;3.08;;;2.03;;
67554;SDS011;54385;53.516;49.456;2024-02-23T10:48:31;3.10;;;1.92;;
67554;SDS011;54385;53.516;49.456;2024-02-23T10:50:59;2.55;;;2.13;;
67554;SDS011;54385;53.516;49.456;2024-02-23T10:53:25;2.72;;;2.00;;
67554;SDS011;54385;53.516;49.456;2024-02-23T10:56:02;3.28;;;2.13;;
67554;SDS011;54385;53.516;49.456;2024-02-23T10:58:33;2.67;;;2.20;;
67554;SDS011;54385;53.516;49.456;2024-02-23T11:01:01;3.33;;;2.28;;
67554;SDS011;54385;53.516;49.456;2024-02-23T11:03:30;2.42;;;1.80;;
67554;SDS011;54385;53.516;49.456;2024-02-23T11:05:59;3.22;;;2.00;;
67554;SDS011;54385;53.516;49.456;2024-02-23T11:08:36;2.80;;;2.10;;
67554;SDS011;54385;53.516;49.456;2024-02-23T11:11:07;2.83;;;2.08;;
67554;SDS011;54385;53.516;49.456;2024-02-23T11:13:38;2.42;;;1.90;;
67554;SDS011;54385;53.516;49.456;2024-02-23T11:16:06;2.88;;;2.20;;
67554;SDS011;54385;53.516;49.456;2024-02-23T11:18:39;2.30;;;1.83;;
67554;SDS011;54385;53.516;49.456;2024-02-23T11:21:08;2.75;;;2.00;;
67554;SDS011;54385;53.516;49.456;2024-02-23T11:23:43;2.90;;;2.00;;
67554;SDS011;54385;53.516;49.456;2024-02-23T11:26:10;3.10;;;2.08;;
67554;SDS011;54385;53.516;49.456;2024-02-23T11:28:41;2.50;;;1.75;;
67554;SDS011;54385;53.516;49.456;2024-02-23T11:31:18;2.53;;;1.85;;
67554;SDS011;54385;53.516;49.456;2024-02-23T11:33:50;2.63;;;2.08;;
67554;SDS011;54385;53.516;49.456;2024-02-23T11:36:28;3.00;;;2.20;;
67554;SDS011;54385;53.516;49.456;2024-02-23T11:38:56;3.03;;;1.95;;
67554;SDS011;54385;53.516;49.456;2024-02-23T11:41:24;3.22;;;2.33;;
67554;SDS011;54385;53.516;49.456;2024-02-23T11:43:53;3.15;;;2.10;;
67554;SDS011;54385;53.516;49.456;2024-02-23T11:46:21;3.25;;;2.20;;
67554;SDS011;54385;53.516;49.456;2024-02-23T11:48:48;3.90;;;2.55;;
67554;SDS011;54385;53.516;49.456;2024-02-23T11:51:22;3.22;;;2.22;;
67554;SDS011;54385;53.516;49.456;2024-02-23T11:53:50;3.55;;;2.30;;
67554;SDS011;54385;53.516;49.456;2024-02-23T11:56:20;2.90;;;2.08;;
67554;SDS011;54385;53.516;49.456;2024-02-23T11:59:10;2.90;;;2.13;;
67554;SDS011;54385;53.516;49.456;2024-02-23T12:01:37;2.97;;;2.50;;
67554;SDS011;54385;53.516;49.456;2024-02-23T12:04:04;3.22;;;2.22;;
67554;SDS011;54385;53.516;49.456;2024-02-23T12:06:31;3.40;;;2.10;;
67554;SDS011;54385;53.516;49.456;2024-02-23T12:09:00;2.67;;;2.13;;
67554;SDS011;54385;53.516;49.456;2024-02-23T12:11:27;2.85;;;2.22;;
67554;SDS011;54385;53.516;49.456;2024-02-23T12:13:55;2.95;;;2.00;;
67554;SDS011;54385;53.516;49.456;2024-02-23T12:16:21;2.38;;;1.90;;
67554;SDS011;54385;53.516;49.456;2024-02-23T12:18:52;3.20;;;2.28;;
67554;SDS011;54385;53.516;49.456;2024-02-23T12:21:22;3.22;;;2.20;;
67554;SDS011;54385;53.516;49.456;2024-02-23T12:23:50;3.72;;;2.45;;
67554;SDS011;54385;53.516;49.456;2024-02-23T12:26:17;2.72;;;2.00;;
67554;SDS011;54385;53.516;49.456;2024-02-23T12:28:45;3.47;;;2.20;;
67554;SDS011;54385;53.516;49.456;2024-02-23T12:31:12;3.55;;;2.30;;
67554;SDS011;54385;53.516;49.456;2024-02-23T12:33:39;3.08;;;2.35;;
67554;SDS011;54385;53.516;49.456;2024-02-23T12:36:07;3.35;;;2.22;;
67554;SDS011;54385;53.516;49.456;2024-02-23T12:38:35;2.88;;;2.28;;
67554;SDS011;54385;53.516;49.456;2024-02-23T12:41:02;2.53;;;2.03;;
67554;SDS011;54385;53.516;49.456;2024-02-23T12:43:30;3.03;;;2.50;;
67554;SDS011;54385;53.516;49.456;2024-02-23T12:45:57;3.30;;;2.30;;
67554;SDS011;54385;53.516;49.456;2024-02-23T12:48:25;2.95;;;2.20;;
67554;SDS011;54385;53.516;49.456;2024-02-23T12:50:52;2.85;;;2.40;;
67554;SDS011;54385;53.516;49.456;2024-02-23T12:53:38;3.38;;;2.20;;
67554;SDS011;54385;53.516;49.456;2024-02-23T12:56:06;2.72;;;2.13;;
67554;SDS011;54385;53.516;49.456;2024-02-23T12:58:38;2.78;;;2.03;;
67554;SDS011;54385;53.516;49.456;2024-02-23T13:01:06;3.33;;;2.20;;
67554;SDS011;54385;53.516;49.456;2024-02-23T13:03:34;2.65;;;2.10;;
67554;SDS011;54385;53.516;49.456;2024-02-23T13:06:02;3.03;;;2.25;;
67554;SDS011;54385;53.516;49.456;2024-02-23T13:08:30;3.00;;;2.35;;
67554;SDS011;54385;53.516;49.456;2024-02-23T13:10:57;3.58;;;2.25;;
67554;SDS011;54385;53.516;49.456;2024-02-23T13:13:24;3.05;;;2.28;;
67554;SDS011;54385;53.516;49.456;2024-02-23T13:15:51;3.00;;;2.33;;
67554;SDS011;54385;53.516;49.456;2024-02-23T13:18:19;3.13;;;2.35;;
67554;SDS011;54385;53.516;49.456;2024-02-23T13:20:46;3.08;;;2.15;;
67554;SDS011;54385;53.516;49.456;2024-02-23T13:23:13;3.63;;;2.20;;
67554;SDS011;54385;53.516;49.456;2024-02-23T13:25:45;3.40;;;2.33;;
67554;SDS011;54385;53.516;49.456;2024-02-23T13:28:15;3.38;;;2.38;;
67554;SDS011;54385;53.516;49.456;2024-02-23T13:30:45;3.55;;;2.22;;
67554;SDS011;54385;53.516;49.456;2024-02-23T13:33:12;3.20;;;2.28;;
67554;SDS011;54385;53.516;49.456;2024-02-23T13:35:39;4.75;;;2.40;;
67554;SDS011;54385;53.516;49.456;2024-02-23T13:38:06;3.85;;;2.65;;
67554;SDS011;54385;53.516;49.456;2024-02-23T13:40:33;2.58;;;2.22;;
67554;SDS011;54385;53.516;49.456;2024-02-23T13:42:59;3.47;;;2.20;;
67554;SDS011;54385;53.516;49.456;2024-02-23T13:45:26;3.05;;;2.35;;
67554;SDS011;54385;53.516;49.456;2024-02-23T13:47:57;2.80;;;2.38;;
67554;SDS011;54385;53.516;49.456;2024-02-23T13:50:38;2.67;;;1.83;;
67554;SDS011;54385;53.516;49.456;2024-02-23T13:53:05;3.50;;;2.20;;
67554;SDS011;54385;53.516;49.456;2024-02-23T13:55:32;3.13;;;2.15;;
67554;SDS011;54385;53.516;49.456;2024-02-23T13:58:02;2.85;;;2.10;;
67554;SDS011;54385;53.516;49.456;2024-02-23T14:00:29;2.30;;;2.00;;
67554;SDS011;54385;53.516;49.456;2024-02-23T14:02:55;2.90;;;2.20;;
67554;SDS011;54385;53.516;49.456;2024-02-23T14:05:22;2.92;;;2.20;;
67554;SDS011;54385;53.516;49.456;2024-02-23T14:08:01;2.28;;;2.00;;
67554;SDS011;54385;53.516;49.456;2024-02-23T14:10:49;3.25;;;2.10;;
67554;SDS011;54385;53.516;49.456;2024-02-23T14:13:15;2.95;;;2.22;;
67554;SDS011;54385;53.516;49.456;2024-02-23T14:15:42;3.00;;;2.00;;
67554;SDS011;54385;53.516;49.456;2024-02-23T14:18:09;2.83;;;1.75;;
67554;SDS011;54385;53.516;49.456;2024-02-23T14:20:36;2.78;;;1.90;;
67554;SDS011;54385;53.516;49.456;2024-02-23T14:23:03;3.55;;;2.20;;
67554;SDS011;54385;53.516;49.456;2024-02-23T14:25:30;3.42;;;2.30;;
67554;SDS011;54385;53.516;49.456;2024-02-23T14:27:57;3.08;;;1.85;;
67554;SDS011;54385;53.516;49.456;2024-02-23T14:30:23;2.72;;;2.03;;
67554;SDS011;54385;53.516;49.456;2024-02-23T14:32:50;3.42;;;2.28;;
67554;SDS011;54385;53.516;49.456;2024-02-23T14:35:17;3.72;;;2.08;;
67554;SDS011;54385;53.516;49.456;2024-02-23T14:37:44;3.22;;;2.42;;